Time;durP1;ratioP1;P1;durP2;ratioP2;P2;SDS_P1;SDS_P2;PMS_P1;PMS_P2;Temp;Humidity;BMP_temperature;BMP_pressure;BME280_temperature;BME280_humidity;BME280_pressure;Samples;Min_cycle;Max_cycle;Signal;HPM_P1;HPM_P2
2022/05/11 00:00:55;;;;;;;;;;;14.10;99.90;;;;;;5040125;28;19916;-66
2022/05/11 00:03:21;;;;;;;;;;;14.10;99.90;;;;;;5054868;28;19909;-67
2022/05/11 00:05:46;;;;;;;;;;;14.10;99.90;;;;;;5055380;28;20365;-67
2022/05/11 00:08:15;;;;;;;;;;;14.10;99.90;;;;;;5035617;28;19916;-68
2022/05/11 00:10:41;;;;;;;;;;;14.10;99.90;;;;;;5055045;28;19912;-67
2022/05/11 00:13:07;;;;;;;;;;;14.10;99.90;;;;;;5050755;28;19916;-66
2022/05/11 00:15:33;;;;;;;;;;;14.20;99.90;;;;;;5056326;28;19916;-67
2022/05/11 00:17:58;;;;;;;;;;;14.20;99.90;;;;;;5048919;28;20375;-67
2022/05/11 00:20:24;;;;;;;;;;;14.20;99.90;;;;;;5035612;28;19912;-66
2022/05/11 00:22:53;;;;;;;;;;;14.20;99.90;;;;;;5029414;28;19924;-67
2022/05/11 00:25:19;;;;;;;;;;;14.30;99.90;;;;;;5055635;28;20173;-68
2022/05/11 00:27:45;;;;;;;;;;;14.10;99.90;;;;;;5052434;28;19922;-68
2022/05/11 00:30:11;;;;;;;;;;;14.10;99.90;;;;;;5054682;28;19912;-66
2022/05/11 00:32:37;;;;;;;;;;;14.10;99.90;;;;;;5049438;28;19912;-67
2022/05/11 00:35:03;;;;;;;;;;;14.10;99.90;;;;;;5034431;28;19919;-67
2022/05/11 00:37:28;;;;;;;;;;;14.10;99.90;;;;;;5057218;28;19908;-67
2022/05/11 00:39:54;;;;;;;;;;;14.10;99.90;;;;;;5054789;28;19916;-67
2022/05/11 00:42:20;;;;;;;;;;;14.10;99.90;;;;;;5052865;28;19943;-66
2022/05/11 00:44:45;;;;;;;;;;;14.10;99.90;;;;;;5054111;28;19909;-67
2022/05/11 00:47:14;;;;;;;;;;;14.10;99.90;;;;;;5056311;28;19920;-67
2022/05/11 00:49:43;;;;;;;;;;;14.20;99.90;;;;;;5058722;28;19912;-67
2022/05/11 00:52:11;;;;;;;;;;;14.20;99.90;;;;;;5054433;28;19909;-67
2022/05/11 00:54:39;;;;;;;;;;;14.30;99.90;;;;;;5049998;28;19916;-66
2022/05/11 00:57:09;;;;;;;;;;;14.30;99.90;;;;;;5055763;28;19972;-67
2022/05/11 00:59:36;;;;;;;;;;;14.20;99.90;;;;;;5053809;28;19908;-67
2022/05/11 01:02:04;;;;;;;;;;;14.20;99.90;;;;;;5052799;28;19958;-67
2022/05/11 01:04:31;;;;;;;;;;;14.10;99.90;;;;;;5052869;28;19935;-67
2022/05/11 01:06:57;;;;;;;;;;;14.00;99.90;;;;;;5046609;28;19917;-67
2022/05/11 01:09:23;;;;;;;;;;;14.00;99.90;;;;;;5034219;28;19916;-68
2022/05/11 01:11:53;;;;;;;;;;;14.00;99.90;;;;;;5050265;28;19979;-67
2022/05/11 01:14:21;;;;;;;;;;;14.10;99.90;;;;;;5053300;28;20377;-68
2022/05/11 01:16:47;;;;;;;;;;;14.10;99.90;;;;;;5041507;28;20011;-67
2022/05/11 01:19:23;;;;;;;;;;;14.10;99.90;;;;;;5048880;28;19916;-67
2022/05/11 01:21:57;;;;;;;;;;;14.10;99.90;;;;;;5050591;28;19917;-67
2022/05/11 01:24:25;;;;;;;;;;;14.10;99.90;;;;;;5045875;28;19916;-68
2022/05/11 01:26:51;;;;;;;;;;;14.10;99.90;;;;;;5048089;28;19916;-67
2022/05/11 01:29:16;;;;;;;;;;;14.10;99.90;;;;;;5049166;28;19915;-67
2022/05/11 01:31:42;;;;;;;;;;;14.00;99.90;;;;;;5045464;28;19909;-67
2022/05/11 01:34:08;;;;;;;;;;;14.00;99.90;;;;;;5050563;28;20009;-67
2022/05/11 01:36:34;;;;;;;;;;;14.10;99.90;;;;;;5043738;28;19916;-67
2022/05/11 01:39:04;;;;;;;;;;;14.10;99.90;;;;;;5048513;28;19919;-66
2022/05/11 01:41:32;;;;;;;;;;;14.00;99.90;;;;;;5051438;28;20007;-66
2022/05/11 01:43:58;;;;;;;;;;;14.00;99.90;;;;;;5031898;28;20003;-67
2022/05/11 01:46:24;;;;;;;;;;;14.00;99.90;;;;;;5051304;28;19924;-67
2022/05/11 01:48:49;;;;;;;;;;;14.00;99.90;;;;;;5050657;28;20286;-68
2022/05/11 01:51:16;;;;;;;;;;;14.00;99.90;;;;;;5048826;28;19908;-66
2022/05/11 01:53:43;;;;;;;;;;;14.00;99.90;;;;;;5045338;28;19916;-67
2022/05/11 01:56:11;;;;;;;;;;;14.00;99.90;;;;;;5050430;28;19912;-67
2022/05/11 01:58:37;;;;;;;;;;;14.00;99.90;;;;;;5045681;28;20496;-67
2022/05/11 02:01:03;;;;;;;;;;;14.00;99.90;;;;;;5049300;28;19916;-67
2022/05/11 02:03:28;;;;;;;;;;;14.00;99.90;;;;;;5030907;28;19917;-68
2022/05/11 02:08:39;;;;;;;;;;;13.90;99.90;;;;;;5050497;28;19974;-66
2022/05/11 02:11:05;;;;;;;;;;;13.80;99.90;;;;;;5049719;28;20363;-67
2022/05/11 02:13:32;;;;;;;;;;;13.90;99.90;;;;;;5044881;28;19970;-67
2022/05/11 02:15:58;;;;;;;;;;;13.90;99.90;;;;;;5047157;28;19932;-66
2022/05/11 02:18:24;;;;;;;;;;;14.00;99.90;;;;;;5052713;28;19928;-66
2022/05/11 02:20:50;;;;;;;;;;;13.90;99.90;;;;;;5049812;28;19913;-66
2022/05/11 02:23:17;;;;;;;;;;;13.80;99.90;;;;;;5052601;28;19909;-66
2022/05/11 02:25:44;;;;;;;;;;;13.80;99.90;;;;;;5050329;28;19909;-67
2022/05/11 02:28:10;;;;;;;;;;;13.70;99.90;;;;;;5051093;28;20405;-66
2022/05/11 02:30:36;;;;;;;;;;;13.70;99.90;;;;;;5050264;28;19931;-66
2022/05/11 02:33:02;;;;;;;;;;;13.70;99.90;;;;;;5047646;28;19913;-65
2022/05/11 02:35:27;;;;;;;;;;;13.60;99.90;;;;;;5049195;28;21456;-68
2022/05/11 02:37:55;;;;;;;;;;;13.70;99.90;;;;;;5052988;28;20363;-67
2022/05/11 02:40:21;;;;;;;;;;;13.60;99.90;;;;;;5049719;28;19908;-66
2022/05/11 02:42:47;;;;;;;;;;;13.70;99.90;;;;;;5046123;28;19913;-68
2022/05/11 02:45:13;;;;;;;;;;;13.70;99.90;;;;;;5043700;28;20042;-66
2022/05/11 02:47:40;;;;;;;;;;;13.60;99.90;;;;;;5030885;28;19920;-68
2022/05/11 02:50:06;;;;;;;;;;;13.70;99.90;;;;;;5050882;28;19919;-66
2022/05/11 02:52:32;;;;;;;;;;;13.70;99.90;;;;;;5049628;28;20276;-66
2022/05/11 02:54:58;;;;;;;;;;;13.70;99.90;;;;;;5050386;28;19919;-67
2022/05/11 02:57:23;;;;;;;;;;;13.70;99.90;;;;;;5052292;28;19909;-67
2022/05/11 02:59:49;;;;;;;;;;;13.70;99.90;;;;;;5051146;28;20433;-66
2022/05/11 03:02:19;;;;;;;;;;;13.60;99.90;;;;;;5029327;28;19909;-67
2022/05/11 03:04:44;;;;;;;;;;;13.70;99.90;;;;;;5047034;28;19950;-67
2022/05/11 03:07:10;;;;;;;;;;;13.60;99.90;;;;;;5041607;28;19942;-67
2022/05/11 03:09:35;;;;;;;;;;;13.50;99.90;;;;;;5048981;28;20362;-66
2022/05/11 03:12:01;;;;;;;;;;;13.50;99.90;;;;;;5050063;28;20622;-66
2022/05/11 03:14:26;;;;;;;;;;;13.60;99.90;;;;;;5028508;28;19931;-67
2022/05/11 03:16:52;;;;;;;;;;;13.60;99.90;;;;;;5051656;28;19917;-66
2022/05/11 03:19:17;;;;;;;;;;;13.50;99.90;;;;;;5047884;28;19909;-66
2022/05/11 03:21:43;;;;;;;;;;;13.40;99.90;;;;;;5049947;28;20007;-68
2022/05/11 03:24:09;;;;;;;;;;;13.40;99.90;;;;;;5048951;28;19909;-67
2022/05/11 03:26:35;;;;;;;;;;;13.40;99.90;;;;;;5045179;28;19928;-68
2022/05/11 03:29:05;;;;;;;;;;;13.40;99.90;;;;;;5047620;28;19920;-66
2022/05/11 03:31:32;;;;;;;;;;;13.40;99.90;;;;;;5046352;28;19920;-68
2022/05/11 03:36:41;;;;;;;;;;;13.40;99.90;;;;;;5047192;28;19924;-67
2022/05/11 03:39:07;;;;;;;;;;;13.40;99.90;;;;;;5050715;28;20328;-67
2022/05/11 03:41:33;;;;;;;;;;;13.40;99.90;;;;;;5048760;28;20361;-67
2022/05/11 03:43:58;;;;;;;;;;;13.40;99.90;;;;;;5050796;28;19913;-67
2022/05/11 03:46:24;;;;;;;;;;;13.30;99.90;;;;;;5052315;28;19920;-66
2022/05/11 03:48:49;;;;;;;;;;;13.30;99.90;;;;;;5032639;28;20619;-66
2022/05/11 03:51:15;;;;;;;;;;;13.30;99.90;;;;;;5048749;28;20312;-67
2022/05/11 03:53:40;;;;;;;;;;;13.30;99.90;;;;;;5048461;28;20337;-67
2022/05/11 03:56:06;;;;;;;;;;;13.30;99.90;;;;;;5033638;28;19916;-66
2022/05/11 03:58:31;;;;;;;;;;;13.20;99.90;;;;;;5048113;28;19952;-67
2022/05/11 04:00:57;;;;;;;;;;;13.20;99.90;;;;;;5047486;28;19909;-67
2022/05/11 04:03:23;;;;;;;;;;;13.10;99.90;;;;;;5057078;28;19908;-67
2022/05/11 04:05:48;;;;;;;;;;;13.20;99.90;;;;;;5047575;28;19962;-67
2022/05/11 04:08:14;;;;;;;;;;;13.20;99.90;;;;;;5036182;28;19912;-67
2022/05/11 04:10:39;;;;;;;;;;;13.20;99.90;;;;;;5052376;28;19956;-66
2022/05/11 04:13:05;;;;;;;;;;;13.10;99.90;;;;;;5045959;28;19916;-67
2022/05/11 04:15:30;;;;;;;;;;;13.10;99.90;;;;;;5047984;28;20014;-66
2022/05/11 04:17:56;;;;;;;;;;;13.10;99.90;;;;;;5046844;28;20381;-68
2022/05/11 04:20:22;;;;;;;;;;;13.10;99.90;;;;;;5051627;28;19913;-68
2022/05/11 04:22:47;;;;;;;;;;;13.00;99.90;;;;;;5053491;28;20010;-67
2022/05/11 04:25:15;;;;;;;;;;;13.10;99.90;;;;;;5052509;28;19909;-67
2022/05/11 04:27:45;;;;;;;;;;;13.10;99.90;;;;;;5053434;28;19935;-67
2022/05/11 04:30:11;;;;;;;;;;;13.10;99.90;;;;;;5051790;28;21187;-67
2022/05/11 04:32:37;;;;;;;;;;;13.10;99.90;;;;;;5033503;28;19909;-69
2022/05/11 04:35:03;;;;;;;;;;;13.00;99.90;;;;;;5046667;28;19947;-67
2022/05/11 04:37:28;;;;;;;;;;;13.00;99.90;;;;;;5052106;28;19930;-67
2022/05/11 04:39:54;;;;;;;;;;;13.00;99.90;;;;;;5049488;28;19915;-66
2022/05/11 04:42:19;;;;;;;;;;;12.90;99.90;;;;;;5051411;28;20131;-69
2022/05/11 04:44:45;;;;;;;;;;;12.90;99.90;;;;;;5047773;28;20262;-67
2022/05/11 04:47:12;;;;;;;;;;;12.90;99.90;;;;;;5051469;28;19920;-68
2022/05/11 04:49:38;;;;;;;;;;;12.90;99.90;;;;;;5033576;28;19913;-67
2022/05/11 04:52:17;;;;;;;;;;;12.90;99.90;;;;;;5046629;28;19916;-68
2022/05/11 04:54:43;;;;;;;;;;;12.90;99.90;;;;;;5050186;28;20011;-67
2022/05/11 04:57:09;;;;;;;;;;;12.90;99.90;;;;;;5049137;28;19909;-66
2022/05/11 04:59:35;;;;;;;;;;;13.00;99.90;;;;;;5033393;28;19920;-66
2022/05/11 05:02:03;;;;;;;;;;;13.00;99.90;;;;;;5049873;28;19962;-67
2022/05/11 05:04:29;;;;;;;;;;;13.00;99.90;;;;;;5052071;28;19920;-68
2022/05/11 05:06:55;;;;;;;;;;;13.10;99.90;;;;;;5050709;28;19920;-67
2022/05/11 05:09:21;;;;;;;;;;;13.10;99.90;;;;;;5052572;28;19924;-66
2022/05/11 05:11:46;;;;;;;;;;;13.10;99.90;;;;;;5028061;28;19916;-68
2022/05/11 05:14:12;;;;;;;;;;;13.10;99.90;;;;;;5048666;28;19923;-67
2022/05/11 05:16:38;;;;;;;;;;;13.20;99.90;;;;;;5045958;28;19979;-67
2022/05/11 05:19:05;;;;;;;;;;;13.20;99.90;;;;;;5050656;28;20312;-68
2022/05/11 05:21:32;;;;;;;;;;;13.20;99.90;;;;;;5049752;28;19913;-69
2022/05/11 05:23:57;;;;;;;;;;;13.30;99.90;;;;;;5050256;28;19913;-67
2022/05/11 05:26:23;;;;;;;;;;;13.30;99.90;;;;;;5051637;28;19913;-67
2022/05/11 05:31:34;;;;;;;;;;;13.40;99.90;;;;;;5043668;28;20025;-67
2022/05/11 05:34:02;;;;;;;;;;;13.50;99.90;;;;;;5046494;28;19991;-67
2022/05/11 05:36:28;;;;;;;;;;;13.50;99.90;;;;;;5046577;28;20308;-67
2022/05/11 05:38:54;;;;;;;;;;;13.50;99.90;;;;;;5049239;28;19908;-67
2022/05/11 05:41:20;;;;;;;;;;;13.50;99.90;;;;;;5052155;28;19966;-67
2022/05/11 05:43:45;;;;;;;;;;;13.50;99.90;;;;;;5052458;28;20265;-67
2022/05/11 05:46:11;;;;;;;;;;;13.50;99.90;;;;;;5045758;28;19916;-67
2022/05/11 05:48:37;;;;;;;;;;;13.60;99.90;;;;;;5051936;28;19913;-67
2022/05/11 05:51:06;;;;;;;;;;;13.60;99.90;;;;;;5045542;28;20309;-67
2022/05/11 05:53:35;;;;;;;;;;;13.60;99.90;;;;;;5048784;28;19916;-67
2022/05/11 05:56:00;;;;;;;;;;;13.50;99.90;;;;;;5044999;28;19917;-68
2022/05/11 05:58:27;;;;;;;;;;;13.40;99.90;;;;;;5050865;28;20266;-66
2022/05/11 06:00:53;;;;;;;;;;;13.30;99.90;;;;;;5048099;28;19912;-66
2022/05/11 06:03:29;;;;;;;;;;;13.30;99.90;;;;;;5032785;28;20039;-66
2022/05/11 06:05:55;;;;;;;;;;;13.30;99.90;;;;;;5028997;28;19962;-68
2022/05/11 06:08:21;;;;;;;;;;;13.30;99.90;;;;;;5050229;28;19916;-67
2022/05/11 06:10:47;;;;;;;;;;;13.40;99.90;;;;;;5042698;28;19916;-67
2022/05/11 06:13:14;;;;;;;;;;;13.30;99.90;;;;;;5042986;28;20373;-68
2022/05/11 06:15:42;;;;;;;;;;;13.40;99.90;;;;;;5044038;28;19909;-67
2022/05/11 06:18:09;;;;;;;;;;;13.40;99.90;;;;;;5037107;28;20029;-68
2022/05/11 06:20:35;;;;;;;;;;;13.40;99.90;;;;;;5043577;28;19913;-68
2022/05/11 06:23:03;;;;;;;;;;;13.40;99.90;;;;;;5046784;28;19920;-68
2022/05/11 06:25:28;;;;;;;;;;;13.40;99.90;;;;;;5037400;28;19909;-67
2022/05/11 06:27:54;;;;;;;;;;;13.50;99.90;;;;;;5037308;28;19970;-67
2022/05/11 06:30:20;;;;;;;;;;;13.40;99.90;;;;;;5036194;28;19967;-68
2022/05/11 06:32:45;;;;;;;;;;;13.50;99.90;;;;;;5040994;28;19908;-66
2022/05/11 06:35:11;;;;;;;;;;;13.50;99.90;;;;;;5021787;28;19987;-68
2022/05/11 06:37:39;;;;;;;;;;;13.60;99.90;;;;;;5038493;28;19908;-67
2022/05/11 06:40:04;;;;;;;;;;;13.60;99.90;;;;;;5033318;28;19915;-68
2022/05/11 06:42:30;;;;;;;;;;;13.60;99.90;;;;;;5031445;28;19913;-67
2022/05/11 06:44:56;;;;;;;;;;;13.70;99.90;;;;;;5029252;28;19912;-68
2022/05/11 06:47:22;;;;;;;;;;;13.80;99.90;;;;;;5039853;28;19923;-68
2022/05/11 06:49:47;;;;;;;;;;;13.70;99.90;;;;;;5040779;28;19909;-67
2022/05/11 06:52:14;;;;;;;;;;;13.70;99.90;;;;;;5035318;28;19912;-67
2022/05/11 07:00:08;;;;;;;;;;;13.60;99.90;;;;;;5037314;28;20282;-67
2022/05/11 07:02:37;;;;;;;;;;;13.50;99.90;;;;;;5032080;28;19912;-68
2022/05/11 07:05:03;;;;;;;;;;;13.50;99.90;;;;;;5030688;28;20331;-67
2022/05/11 07:07:28;;;;;;;;;;;13.50;99.90;;;;;;5023130;28;19935;-65
2022/05/11 07:09:54;;;;;;;;;;;13.60;99.90;;;;;;5031484;28;20358;-67
2022/05/11 07:12:32;;;;;;;;;;;13.60;99.90;;;;;;5032297;28;20345;-66
2022/05/11 07:14:59;;;;;;;;;;;13.60;99.90;;;;;;5047254;28;19916;-67
2022/05/11 07:17:42;;;;;;;;;;;13.50;99.90;;;;;;5042144;28;19917;-67
2022/05/11 07:20:10;;;;;;;;;;;13.50;99.90;;;;;;5031319;28;20314;-66
2022/05/11 07:22:35;;;;;;;;;;;13.40;99.90;;;;;;5030277;28;19970;-68
2022/05/11 07:25:01;;;;;;;;;;;13.50;99.90;;;;;;5030808;28;19917;-68
2022/05/11 07:27:27;;;;;;;;;;;13.50;99.90;;;;;;5029785;28;19912;-68
2022/05/11 07:29:53;;;;;;;;;;;13.50;99.90;;;;;;5030538;28;20011;-68
2022/05/11 07:32:18;;;;;;;;;;;13.40;99.90;;;;;;5029691;28;20320;-66
2022/05/11 07:34:44;;;;;;;;;;;13.40;99.90;;;;;;5035443;28;19913;-67
2022/05/11 07:37:10;;;;;;;;;;;13.40;99.90;;;;;;5041517;28;20012;-66
2022/05/11 07:39:35;;;;;;;;;;;13.50;99.90;;;;;;5031176;28;19917;-67
2022/05/11 07:42:01;;;;;;;;;;;13.50;99.90;;;;;;5048596;28;20278;-67
2022/05/11 07:44:27;;;;;;;;;;;13.40;99.90;;;;;;5033304;28;19920;-68
2022/05/11 07:46:53;;;;;;;;;;;13.50;99.90;;;;;;5055119;28;20007;-66
2022/05/11 07:49:19;;;;;;;;;;;13.50;99.90;;;;;;5056485;28;19919;-66
2022/05/11 07:51:45;;;;;;;;;;;13.50;99.90;;;;;;5053659;28;19962;-65
2022/05/11 07:54:11;;;;;;;;;;;13.50;99.90;;;;;;5042293;28;19920;-67
2022/05/11 08:02:06;;;;;;;;;;;13.50;99.90;;;;;;5044572;28;20362;-67
2022/05/11 08:04:31;;;;;;;;;;;13.50;99.90;;;;;;5042710;28;19916;-67
2022/05/11 08:06:58;;;;;;;;;;;13.50;99.90;;;;;;5046644;28;20253;-69
2022/05/11 08:09:24;;;;;;;;;;;13.60;99.90;;;;;;5024269;28;19913;-66
2022/05/11 08:11:51;;;;;;;;;;;13.60;99.90;;;;;;5043863;28;19920;-68
2022/05/11 08:14:18;;;;;;;;;;;13.60;99.90;;;;;;5043668;28;19958;-67
2022/05/11 08:16:43;;;;;;;;;;;13.60;99.90;;;;;;5053783;28;20325;-67
2022/05/11 08:19:09;;;;;;;;;;;13.50;99.90;;;;;;5046774;28;19924;-66
2022/05/11 08:21:35;;;;;;;;;;;13.50;99.90;;;;;;5036654;28;19917;-67
2022/05/11 08:24:01;;;;;;;;;;;13.50;99.90;;;;;;5030307;28;19932;-68
2022/05/11 08:26:27;;;;;;;;;;;13.50;99.90;;;;;;5036265;28;19920;-67
2022/05/11 08:28:53;;;;;;;;;;;13.50;99.90;;;;;;5046231;28;19917;-66
2022/05/11 08:34:02;;;;;;;;;;;13.50;99.90;;;;;;5039188;28;19999;-67
2022/05/11 08:36:28;;;;;;;;;;;13.60;99.90;;;;;;5052642;28;20370;-68
2022/05/11 08:38:55;;;;;;;;;;;13.60;99.90;;;;;;5021310;28;20635;-67
2022/05/11 08:41:20;;;;;;;;;;;13.60;99.90;;;;;;5040360;28;19944;-67
2022/05/11 08:43:47;;;;;;;;;;;13.60;99.90;;;;;;5041212;28;19948;-68
2022/05/11 08:46:31;;;;;;;;;;;13.70;99.90;;;;;;5056236;28;19912;-68
2022/05/11 08:49:02;;;;;;;;;;;13.70;99.90;;;;;;5025223;28;19957;-67
2022/05/11 08:51:37;;;;;;;;;;;13.70;99.90;;;;;;5018968;28;19920;-67
2022/05/11 08:54:18;;;;;;;;;;;13.60;99.90;;;;;;5042181;28;19916;-68
2022/05/11 08:56:44;;;;;;;;;;;13.70;99.90;;;;;;5053192;28;20263;-67
2022/05/11 08:59:16;;;;;;;;;;;13.60;99.90;;;;;;5022477;28;19919;-68
2022/05/11 09:01:48;;;;;;;;;;;13.70;99.90;;;;;;5035344;28;19935;-67
2022/05/11 09:04:15;;;;;;;;;;;13.80;99.90;;;;;;5047878;28;20282;-68
2022/05/11 09:06:44;;;;;;;;;;;13.80;99.90;;;;;;5056060;28;19919;-67
2022/05/11 09:09:10;;;;;;;;;;;13.80;99.90;;;;;;5050005;28;19913;-66
2022/05/11 09:11:52;;;;;;;;;;;13.80;99.90;;;;;;5046872;28;20380;-67
2022/05/11 09:14:22;;;;;;;;;;;13.80;99.90;;;;;;5025170;28;19909;-67
2022/05/11 09:16:51;;;;;;;;;;;13.80;99.90;;;;;;5040910;28;19923;-66
2022/05/11 09:19:23;;;;;;;;;;;13.90;99.90;;;;;;5052039;28;19909;-68
2022/05/11 09:22:10;;;;;;;;;;;13.90;99.90;;;;;;5032933;28;19939;-68
2022/05/11 09:24:37;;;;;;;;;;;13.90;99.90;;;;;;5050972;28;19909;-66
2022/05/11 09:27:05;;;;;;;;;;;13.90;99.90;;;;;;5056929;28;19912;-66
2022/05/11 09:29:33;;;;;;;;;;;13.90;99.90;;;;;;5057435;28;19932;-66
2022/05/11 09:32:19;;;;;;;;;;;13.90;99.90;;;;;;5061953;28;19966;-66
2022/05/11 09:34:45;;;;;;;;;;;13.90;99.90;;;;;;5045504;28;19919;-66
2022/05/11 09:37:19;;;;;;;;;;;14.00;99.90;;;;;;5054534;28;19943;-67
2022/05/11 09:39:55;;;;;;;;;;;14.00;99.90;;;;;;5055080;28;19958;-66
2022/05/11 09:42:29;;;;;;;;;;;14.10;99.90;;;;;;5061631;28;19928;-67
2022/05/11 09:44:54;;;;;;;;;;;14.10;99.90;;;;;;5063712;28;19931;-68
2022/05/11 09:47:29;;;;;;;;;;;14.10;99.90;;;;;;5057259;28;20309;-67
2022/05/11 09:49:55;;;;;;;;;;;14.10;99.90;;;;;;5054478;28;19927;-68
2022/05/11 09:52:31;;;;;;;;;;;14.20;99.90;;;;;;5061455;28;19909;-67
2022/05/11 09:54:57;;;;;;;;;;;14.30;99.90;;;;;;5063142;28;19923;-67
2022/05/11 09:57:29;;;;;;;;;;;14.40;99.90;;;;;;5044652;28;19909;-67
2022/05/11 10:00:14;;;;;;;;;;;14.40;99.90;;;;;;5039407;28;19916;-67
2022/05/11 10:02:43;;;;;;;;;;;14.40;99.90;;;;;;5042468;28;19915;-67
2022/05/11 10:05:08;;;;;;;;;;;14.40;99.90;;;;;;5062394;28;19909;-69
2022/05/11 10:07:49;;;;;;;;;;;14.40;99.90;;;;;;5058565;28;19913;-68
2022/05/11 10:10:24;;;;;;;;;;;14.40;99.90;;;;;;5062376;28;19963;-68
2022/05/11 10:12:49;;;;;;;;;;;14.40;99.90;;;;;;5037693;28;19908;-67
2022/05/11 10:23:44;;;;;;;;;;;14.70;99.90;;;;;;5048041;28;19958;-67
2022/05/11 10:26:15;;;;;;;;;;;14.60;99.90;;;;;;5039600;28;19931;-67
2022/05/11 10:28:41;;;;;;;;;;;14.70;99.90;;;;;;5061564;28;19959;-67
2022/05/11 10:31:12;;;;;;;;;;;14.70;99.90;;;;;;5041302;28;19909;-67
2022/05/11 10:33:57;;;;;;;;;;;14.60;99.90;;;;;;5053097;28;19912;-67
2022/05/11 10:36:24;;;;;;;;;;;14.70;99.90;;;;;;5046083;28;20000;-67
2022/05/11 10:39:01;;;;;;;;;;;14.70;99.90;;;;;;5059019;28;19995;-66
2022/05/11 10:41:36;;;;;;;;;;;14.80;99.90;;;;;;5040981;28;19992;-67
2022/05/11 10:44:05;;;;;;;;;;;14.80;99.90;;;;;;5050774;28;19908;-67
2022/05/11 10:46:35;;;;;;;;;;;14.80;99.90;;;;;;5062524;28;19912;-67
2022/05/11 10:49:09;;;;;;;;;;;14.80;99.90;;;;;;5061588;28;19939;-67
2022/05/11 10:51:58;;;;;;;;;;;14.90;99.90;;;;;;5056626;28;19970;-68
2022/05/11 10:54:30;;;;;;;;;;;14.90;99.90;;;;;;5049625;28;19905;-67
2022/05/11 10:57:07;;;;;;;;;;;15.00;99.90;;;;;;5040149;28;19909;-67
2022/05/11 10:59:49;;;;;;;;;;;15.00;99.90;;;;;;5044134;28;20314;-67
2022/05/11 11:02:18;;;;;;;;;;;15.00;99.90;;;;;;5054833;28;19948;-66
2022/05/11 11:04:43;;;;;;;;;;;15.00;99.90;;;;;;5054473;28;19912;-67
2022/05/11 11:07:14;;;;;;;;;;;15.00;99.90;;;;;;5058006;28;20343;-67
2022/05/11 11:09:47;;;;;;;;;;;15.00;99.90;;;;;;5055176;28;19920;-67
2022/05/11 11:12:24;;;;;;;;;;;15.10;99.90;;;;;;5047950;28;19909;-66
2022/05/11 11:14:54;;;;;;;;;;;15.00;99.90;;;;;;5056950;28;20281;-65
2022/05/11 11:17:22;;;;;;;;;;;15.00;99.90;;;;;;5050009;28;19921;-67
2022/05/11 11:19:58;;;;;;;;;;;15.10;99.90;;;;;;5049293;28;19913;-66
2022/05/11 11:22:23;;;;;;;;;;;15.10;99.90;;;;;;5046457;28;19909;-67
2022/05/11 11:25:08;;;;;;;;;;;15.10;99.90;;;;;;5055989;28;19916;-69
2022/05/11 11:27:59;;;;;;;;;;;15.20;99.90;;;;;;5052084;28;19916;-67
2022/05/11 11:30:26;;;;;;;;;;;15.20;99.90;;;;;;5043312;28;20283;-67
2022/05/11 11:33:16;;;;;;;;;;;15.20;99.90;;;;;;5048584;28;19913;-67
2022/05/11 11:35:50;;;;;;;;;;;15.30;99.90;;;;;;5052007;28;19916;-68
2022/05/11 11:38:42;;;;;;;;;;;15.30;99.90;;;;;;5050650;28;19909;-67
2022/05/11 11:41:15;;;;;;;;;;;15.30;99.90;;;;;;5044146;28;19913;-68
2022/05/11 11:43:53;;;;;;;;;;;15.40;99.90;;;;;;5046078;28;19909;-67
2022/05/11 11:46:28;;;;;;;;;;;15.40;99.90;;;;;;5056111;28;19995;-67
2022/05/11 11:49:09;;;;;;;;;;;15.30;99.90;;;;;;5047332;28;20351;-67
2022/05/11 11:51:54;;;;;;;;;;;15.30;99.90;;;;;;5052151;28;19909;-67
2022/05/11 11:54:29;;;;;;;;;;;15.20;99.90;;;;;;5050976;28;19909;-67
2022/05/11 11:56:55;;;;;;;;;;;15.20;99.90;;;;;;5052225;28;19916;-68
2022/05/11 11:59:24;;;;;;;;;;;15.00;99.90;;;;;;5053199;28;19915;-68
2022/05/11 12:01:52;;;;;;;;;;;14.80;99.90;;;;;;5039502;28;19960;-67
2022/05/11 12:04:23;;;;;;;;;;;14.60;99.90;;;;;;5061427;28;19919;-67
2022/05/11 12:15:14;;;;;;;;;;;15.10;99.90;;;;;;5047670;28;20798;-67
2022/05/11 12:17:40;;;;;;;;;;;15.30;99.90;;;;;;5060730;28;19917;-67
2022/05/11 12:20:06;;;;;;;;;;;15.20;99.90;;;;;;5054597;28;19909;-67
2022/05/11 12:22:32;;;;;;;;;;;15.40;99.90;;;;;;5059470;28;19908;-66
2022/05/11 12:25:06;;;;;;;;;;;15.50;99.90;;;;;;5051197;28;19928;-68
2022/05/11 12:27:33;;;;;;;;;;;15.60;99.90;;;;;;5063139;28;19913;-66
2022/05/11 12:30:04;;;;;;;;;;;15.70;99.90;;;;;;5056371;28;19920;-66
2022/05/11 12:32:31;;;;;;;;;;;15.80;99.90;;;;;;5048616;28;19916;-67
2022/05/11 12:35:05;;;;;;;;;;;16.00;99.90;;;;;;5068847;28;19904;-67
2022/05/11 12:37:32;;;;;;;;;;;16.00;99.90;;;;;;5066029;28;19909;-67
2022/05/11 12:40:04;;;;;;;;;;;16.00;99.90;;;;;;5066260;28;20006;-66
2022/05/11 12:42:38;;;;;;;;;;;16.00;99.90;;;;;;5069774;28;19908;-68
2022/05/11 12:45:05;;;;;;;;;;;15.90;99.90;;;;;;5059525;28;19940;-67
2022/05/11 12:47:30;;;;;;;;;;;16.00;99.90;;;;;;5061162;28;19912;-67
2022/05/11 12:49:56;;;;;;;;;;;16.00;99.90;;;;;;5068419;28;20872;-66
2022/05/11 12:52:24;;;;;;;;;;;16.00;99.90;;;;;;5044585;28;19913;-66
2022/05/11 12:54:56;;;;;;;;;;;16.00;99.90;;;;;;5061412;28;19908;-67
2022/05/11 12:57:22;;;;;;;;;;;16.10;99.90;;;;;;5065347;28;19908;-68
2022/05/11 12:59:49;;;;;;;;;;;16.00;99.90;;;;;;5062950;28;20012;-67
2022/05/11 13:02:16;;;;;;;;;;;15.90;99.90;;;;;;5040929;28;19920;-67
2022/05/11 13:04:52;;;;;;;;;;;15.90;99.90;;;;;;5028650;28;20309;-66
2022/05/11 13:07:21;;;;;;;;;;;16.00;99.90;;;;;;5055901;28;20373;-67
2022/05/11 13:09:49;;;;;;;;;;;16.10;99.90;;;;;;5058581;28;19935;-68
2022/05/11 13:12:15;;;;;;;;;;;16.00;99.90;;;;;;5037374;28;19912;-67
2022/05/11 13:14:49;;;;;;;;;;;16.00;99.90;;;;;;5053447;28;19908;-67
2022/05/11 13:17:24;;;;;;;;;;;16.00;99.90;;;;;;5043556;28;19924;-67
2022/05/11 13:19:55;;;;;;;;;;;16.10;99.90;;;;;;5034069;28;20293;-67
2022/05/11 13:22:22;;;;;;;;;;;16.40;99.90;;;;;;5049210;28;20413;-67
2022/05/11 13:24:49;;;;;;;;;;;16.50;99.90;;;;;;5051565;28;19936;-67
2022/05/11 13:27:33;;;;;;;;;;;16.30;99.90;;;;;;5049363;28;19934;-66
2022/05/11 13:30:17;;;;;;;;;;;16.10;99.90;;;;;;5053428;28;20317;-66
2022/05/11 13:32:54;;;;;;;;;;;16.30;99.90;;;;;;5060273;28;19909;-67
2022/05/11 13:35:24;;;;;;;;;;;16.20;99.90;;;;;;5058411;28;20334;-67
2022/05/11 13:38:02;;;;;;;;;;;16.30;99.90;;;;;;5053942;28;20282;-67
2022/05/11 13:40:27;;;;;;;;;;;16.30;99.90;;;;;;5054568;28;20011;-68
2022/05/11 13:42:53;;;;;;;;;;;16.50;99.90;;;;;;5059728;28;19956;-67
2022/05/11 13:45:20;;;;;;;;;;;16.70;99.90;;;;;;5049522;28;19912;-67
2022/05/11 13:50:35;;;;;;;;;;;16.80;99.90;;;;;;5056946;28;20354;-68
2022/05/11 13:53:04;;;;;;;;;;;16.80;99.90;;;;;;5043153;28;19909;-67
2022/05/11 13:55:33;;;;;;;;;;;17.00;99.90;;;;;;5054825;28;19932;-66
2022/05/11 13:58:17;;;;;;;;;;;17.00;99.90;;;;;;5043154;28;20346;-68
2022/05/11 14:00:42;;;;;;;;;;;17.30;99.90;;;;;;5051945;28;19932;-68
2022/05/11 14:03:09;;;;;;;;;;;17.10;99.90;;;;;;5056824;28;19928;-67
2022/05/11 14:05:34;;;;;;;;;;;16.70;99.90;;;;;;5056830;28;19915;-66
2022/05/11 14:08:00;;;;;;;;;;;16.40;99.90;;;;;;5055228;28;20254;-68
2022/05/11 14:10:25;;;;;;;;;;;15.90;99.90;;;;;;5055905;28;19912;-68
2022/05/11 14:12:51;;;;;;;;;;;15.80;99.90;;;;;;5036038;28;20347;-66
2022/05/11 14:15:17;;;;;;;;;;;15.70;99.90;;;;;;5048402;28;19960;-66
2022/05/11 14:17:44;;;;;;;;;;;15.60;99.90;;;;;;5049975;28;20345;-67
2022/05/11 14:20:10;;;;;;;;;;;15.70;99.90;;;;;;5032410;28;20273;-67
2022/05/11 14:22:38;;;;;;;;;;;15.70;99.90;;;;;;5037708;28;19909;-67
2022/05/11 14:25:04;;;;;;;;;;;16.00;99.90;;;;;;5050809;28;19908;-67
2022/05/11 14:27:30;;;;;;;;;;;16.00;99.90;;;;;;5040775;28;20388;-68
2022/05/11 14:29:55;;;;;;;;;;;15.90;99.90;;;;;;5055442;28;19916;-66
2022/05/11 14:32:28;;;;;;;;;;;16.00;99.90;;;;;;5042773;28;20074;-67
2022/05/11 14:34:54;;;;;;;;;;;16.10;99.90;;;;;;5042947;28;19909;-67
2022/05/11 14:37:20;;;;;;;;;;;16.20;99.90;;;;;;5043747;28;20007;-67
2022/05/11 14:39:46;;;;;;;;;;;16.20;99.90;;;;;;5048336;28;19948;-68
2022/05/11 14:42:12;;;;;;;;;;;16.20;99.90;;;;;;5044580;28;19909;-66
2022/05/11 14:44:37;;;;;;;;;;;16.30;99.90;;;;;;5046402;28;19919;-66
2022/05/11 14:47:03;;;;;;;;;;;16.40;99.90;;;;;;5042334;28;19913;-66
2022/05/11 14:49:29;;;;;;;;;;;16.80;99.90;;;;;;5044718;28;20010;-66
2022/05/11 14:51:55;;;;;;;;;;;17.80;99.90;;;;;;5048357;28;19962;-65
2022/05/11 14:54:21;;;;;;;;;;;18.60;99.90;;;;;;5041621;28;19913;-66
2022/05/11 15:01:55;;;;;;;;;;;19.00;99.90;;;;;;5044705;28;19936;-67
2022/05/11 15:02:17;;;;;;;;;;;19.60;99.90;;;;;;5037874;28;20418;-66
2022/05/11 15:04:44;;;;;;;;;;;19.70;99.90;;;;;;5045219;28;19935;-68
2022/05/11 15:07:10;;;;;;;;;;;19.60;99.90;;;;;;5022516;28;20294;-69